createdAt,value
2024-01-31T00:00:18.064Z,18.446423
2024-01-31T00:05:24.371Z,18.829438
2024-01-31T00:10:24.106Z,18.731653
2024-01-31T00:15:24.173Z,18.446423
2024-01-31T00:20:24.104Z,18.446423
2024-01-31T00:25:24.279Z,18.731653
2024-01-31T00:30:24.110Z,19.111730
2024-01-31T00:35:18.066Z,18.731653
2024-01-31T00:40:24.265Z,19.013812
2024-01-31T00:45:15.957Z,19.013812
2024-01-31T00:50:16.020Z,18.915893
2024-01-31T00:55:18.059Z,19.391020
2024-01-31T01:00:17.987Z,19.391020
2024-01-31T01:05:18.087Z,19.111730
2024-01-31T01:10:24.317Z,19.013812
2024-01-31T01:15:18.078Z,19.292969
2024-01-31T01:20:18.083Z,19.292969
2024-01-31T01:25:24.422Z,19.013812
2024-01-31T01:30:24.278Z,19.292969
2024-01-31T01:35:24.284Z,19.194919
2024-01-31T01:40:16.127Z,19.292969
2024-01-31T01:45:18.101Z,19.292969
2024-01-31T01:50:17.999Z,19.765553
2024-01-31T01:55:18.180Z,19.391020
2024-01-31T02:00:24.456Z,19.391020
2024-01-31T02:05:18.463Z,19.391020
2024-01-31T02:10:24.570Z,19.292969
2024-01-31T02:15:24.430Z,19.667373
2024-01-31T02:20:24.394Z,19.292969
2024-01-31T02:25:24.422Z,19.765553
2024-01-31T02:30:16.227Z,19.667373
2024-01-31T02:35:16.271Z,19.667373
2024-01-31T02:40:24.513Z,19.667373
2024-01-31T02:45:24.521Z,19.667373
2024-01-31T02:50:18.252Z,19.765553
2024-01-31T02:55:24.439Z,19.765553
2024-01-31T03:00:24.557Z,19.765553
2024-01-31T03:05:24.569Z,19.863733
2024-01-31T03:10:18.353Z,19.863733
2024-01-31T03:15:18.343Z,19.863733
2024-01-31T03:20:18.341Z,19.765553
2024-01-31T03:25:16.400Z,19.667373
2024-01-31T03:30:16.347Z,19.667373
2024-01-31T03:35:24.567Z,19.667373
2024-01-31T03:40:18.547Z,19.765553
2024-01-31T03:45:18.384Z,19.765553
2024-01-31T03:50:18.366Z,19.765553
2024-01-31T03:55:24.566Z,19.667373
2024-01-31T04:00:18.386Z,19.667373
2024-01-31T04:05:24.901Z,20.039165
2024-01-31T04:10:24.719Z,19.765553
2024-01-31T04:15:24.543Z,19.863733
2024-01-31T04:20:16.575Z,19.863733
2024-01-31T04:25:16.558Z,19.961912
2024-01-31T04:30:18.508Z,19.863733
2024-01-31T04:35:24.727Z,19.961912
2024-01-31T04:40:24.734Z,20.137474
2024-01-31T04:45:18.488Z,20.137474
2024-01-31T04:50:24.767Z,19.863733
2024-01-31T04:55:24.778Z,19.961912
2024-01-31T05:00:17.859Z,19.863733
2024-01-31T05:05:17.908Z,19.961912
2024-01-31T05:10:24.021Z,19.961912
2024-01-31T05:15:17.867Z,20.334092
2024-01-31T05:20:24.162Z,20.334092
2024-01-31T05:25:24.187Z,20.432399
2024-01-31T05:30:15.933Z,20.432399
2024-01-31T05:35:24.149Z,20.432399
2024-01-31T05:40:24.137Z,20.802151
2024-01-31T05:45:24.149Z,20.629014
2024-01-31T05:50:24.170Z,20.530707
2024-01-31T05:55:18.007Z,20.530707
2024-01-31T06:00:24.149Z,20.158270
2024-01-31T06:05:24.189Z,20.158270
2024-01-31T06:10:18.021Z,20.530707
2024-01-31T06:15:24.157Z,20.530707
2024-01-31T06:20:16.107Z,20.629014
2024-01-31T06:25:15.992Z,20.629014
2024-01-31T06:30:24.239Z,20.530707
2024-01-31T06:35:24.241Z,20.802151
2024-01-31T06:40:18.044Z,20.900586
2024-01-31T06:45:18.109Z,20.629014
2024-01-31T06:50:24.383Z,20.530707
2024-01-31T06:55:24.247Z,20.629014
2024-01-31T07:00:18.198Z,20.629014
2024-01-31T07:05:18.170Z,20.629014
2024-01-31T07:10:24.331Z,20.629014
2024-01-31T07:15:18.810Z,20.629014
2024-01-31T07:20:16.253Z,20.629014
2024-01-31T07:25:24.403Z,20.727321
2024-01-31T07:30:18.096Z,20.825627
2024-01-31T07:35:18.221Z,20.825627
2024-01-31T07:40:18.203Z,21.097456
2024-01-31T07:45:24.325Z,21.097456
2024-01-31T07:50:24.534Z,21.366527
2024-01-31T07:55:18.117Z,21.097456
2024-01-31T08:00:18.110Z,21.097456
2024-01-31T08:05:24.382Z,21.366527
2024-01-31T08:10:16.392Z,21.366527
2024-01-31T08:15:16.186Z,21.366527
2024-01-31T08:20:24.645Z,21.366527
2024-01-31T08:25:18.321Z,21.366527
2024-01-31T08:30:18.334Z,21.366527
2024-01-31T08:35:18.330Z,21.465088
2024-01-31T08:40:24.657Z,21.366527
2024-01-31T08:45:18.342Z,21.366527
2024-01-31T08:50:24.586Z,21.097456
2024-01-31T08:55:18.390Z,21.195890
2024-01-31T09:00:18.776Z,21.195890
2024-01-31T09:05:16.439Z,21.195890
2024-01-31T09:10:24.535Z,21.097456
2024-01-31T09:15:24.717Z,21.097456
2024-01-31T09:20:18.429Z,21.097456
2024-01-31T09:25:24.728Z,21.195890
2024-01-31T09:30:18.368Z,21.465088
2024-01-31T09:35:18.568Z,21.195890
2024-01-31T09:40:24.808Z,21.465088
2024-01-31T09:45:18.462Z,21.465088
2024-01-31T09:50:18.549Z,21.195890
2024-01-31T09:55:16.582Z,21.195890
2024-01-31T10:00:16.510Z,21.195890
2024-01-31T10:05:18.467Z,21.195890
2024-01-31T10:10:24.931Z,21.195890
2024-01-31T10:15:24.702Z,21.392758
2024-01-31T10:20:24.788Z,21.392758
2024-01-31T10:25:24.819Z,21.392758
2024-01-31T10:30:24.739Z,21.392758
2024-01-31T10:35:34.206Z,21.392758
2024-01-31T10:40:18.763Z,21.392758
2024-01-31T10:45:24.934Z,21.392758
2024-01-31T10:50:16.606Z,21.491191
2024-01-31T10:55:16.816Z,21.589624
2024-01-31T11:00:25.224Z,21.589624
2024-01-31T11:05:25.146Z,21.589624
2024-01-31T11:10:24.882Z,21.589624
2024-01-31T11:15:24.872Z,21.589624
2024-01-31T11:20:18.878Z,21.589624
2024-01-31T11:25:24.978Z,21.688056
2024-01-31T11:30:24.921Z,21.688056
2024-01-31T11:35:18.655Z,21.688056
2024-01-31T11:40:24.859Z,21.786489
2024-01-31T11:45:16.871Z,21.786489
2024-01-31T11:50:16.831Z,21.884920
2024-01-31T11:55:18.938Z,21.884920
2024-01-31T12:00:18.952Z,21.884920
2024-01-31T12:05:18.930Z,21.884920
2024-01-31T12:10:18.772Z,21.884920
2024-01-31T12:15:18.858Z,21.884920
2024-01-31T12:20:25.087Z,21.786489
2024-01-31T12:25:25.161Z,21.884920
2024-01-31T12:30:25.058Z,21.884920
2024-01-31T12:35:19.031Z,21.983352
2024-01-31T12:40:16.997Z,21.983352
2024-01-31T12:45:18.990Z,21.983352
2024-01-31T12:50:18.970Z,21.983352
2024-01-31T12:55:25.327Z,22.081783
2024-01-31T13:00:19.089Z,22.180213
2024-01-31T13:05:19.013Z,22.180213
2024-01-31T13:10:25.188Z,22.278644
2024-01-31T13:15:19.237Z,22.377073
2024-01-31T13:20:25.368Z,22.377073
2024-01-31T13:25:25.359Z,22.377073
2024-01-31T13:30:17.162Z,22.475503
2024-01-31T13:35:17.116Z,22.201875
2024-01-31T13:40:25.274Z,22.300176
2024-01-31T13:45:25.234Z,22.398476
2024-01-31T13:50:19.033Z,22.496775
2024-01-31T13:55:19.092Z,22.595075
2024-01-31T14:00:19.150Z,22.595075
2024-01-31T14:05:25.374Z,22.595075
2024-01-31T14:10:19.087Z,22.693374
2024-01-31T14:15:25.430Z,22.791672
2024-01-31T14:20:25.417Z,22.889970
2024-01-31T14:25:17.326Z,22.988268
2024-01-31T14:30:17.207Z,23.086565
2024-01-31T14:35:19.420Z,23.184862
2024-01-31T14:40:25.348Z,23.005263
2024-01-31T14:45:25.412Z,23.103429
2024-01-31T14:50:19.316Z,23.201594
2024-01-31T14:55:19.317Z,23.299759
2024-01-31T15:00:25.518Z,23.299759
2024-01-31T15:05:19.300Z,23.397923
2024-01-31T15:10:19.203Z,23.594251
2024-01-31T15:15:19.339Z,23.594251
2024-01-31T15:20:17.392Z,23.790577
2024-01-31T15:25:25.580Z,23.888739
2024-01-31T15:30:19.412Z,23.606744
2024-01-31T15:35:19.335Z,23.986901
2024-01-31T15:40:19.436Z,23.900833
2024-01-31T15:45:25.572Z,23.998862
2024-01-31T15:50:25.665Z,24.194917
2024-01-31T15:55:19.444Z,24.194917
2024-01-31T16:00:25.584Z,24.292945
2024-01-31T16:05:19.341Z,24.390972
2024-01-31T16:10:17.510Z,24.202812
2024-01-31T16:15:17.405Z,24.202812
2024-01-31T16:20:19.530Z,24.202812
2024-01-31T16:25:19.365Z,24.783074
2024-01-31T16:30:25.659Z,24.881099
2024-01-31T16:35:25.676Z,24.881099
2024-01-31T16:40:25.716Z,24.979123
2024-01-31T16:45:19.625Z,24.790159
2024-01-31T16:50:25.689Z,24.692269
2024-01-31T16:55:25.762Z,24.790159
2024-01-31T17:00:19.626Z,24.790159
2024-01-31T17:05:17.656Z,24.985938
2024-01-31T17:10:23.719Z,24.985938
2024-01-31T17:15:23.931Z,25.083826
2024-01-31T17:20:23.798Z,25.083826
2024-01-31T17:25:17.673Z,25.279602
2024-01-31T17:30:23.787Z,25.377489
2024-01-31T17:35:24.828Z,25.279602
2024-01-31T17:40:24.749Z,25.377489
2024-01-31T17:45:24.905Z,25.763299
2024-01-31T17:50:18.606Z,25.573262
2024-01-31T17:55:18.552Z,25.671147
2024-01-31T18:00:24.923Z,25.866917
2024-01-31T18:05:18.779Z,25.769032
2024-01-31T18:10:24.908Z,25.866917
2024-01-31T18:15:19.990Z,25.866917
2024-01-31T18:20:16.779Z,26.253394
2024-01-31T18:25:18.756Z,26.351412
2024-01-31T18:30:18.882Z,26.351412
2024-01-31T18:35:25.071Z,26.351412
2024-01-31T18:40:24.878Z,26.351412
2024-01-31T18:45:18.746Z,26.449429
2024-01-31T18:50:18.784Z,26.547446
2024-01-31T18:55:25.089Z,26.547446
2024-01-31T19:00:24.940Z,26.547446
2024-01-31T19:05:18.881Z,26.547446
2024-01-31T19:10:16.944Z,26.547446
2024-01-31T19:15:16.888Z,27.029707
2024-01-31T19:20:18.933Z,27.029707
2024-01-31T19:25:18.908Z,26.841493
2024-01-31T19:30:25.365Z,26.841493
2024-01-31T19:35:25.101Z,27.226003
2024-01-31T19:40:18.919Z,27.226003
2024-01-31T19:45:25.153Z,27.324151
2024-01-31T19:50:25.089Z,27.324151
2024-01-31T19:55:19.025Z,27.037523
2024-01-31T20:00:18.938Z,27.037523
2024-01-31T20:05:17.061Z,27.422298
2024-01-31T20:10:17.016Z,27.324151
2024-01-31T20:15:25.297Z,27.324151
2024-01-31T20:20:18.989Z,27.422298
2024-01-31T20:25:25.273Z,27.422298
2024-01-31T20:30:25.242Z,27.422298
2024-01-31T20:35:19.000Z,27.706087
2024-01-31T20:40:25.197Z,27.706087
2024-01-31T20:45:19.152Z,27.706087
2024-01-31T20:50:19.096Z,27.607809
2024-01-31T20:55:25.302Z,27.706087
2024-01-31T21:00:17.258Z,27.706087
2024-01-31T21:05:25.442Z,27.706087
2024-01-31T21:10:25.245Z,27.706087
2024-01-31T21:15:19.114Z,27.706087
2024-01-31T21:20:19.383Z,27.706087
2024-01-31T21:25:19.255Z,27.706087
2024-01-31T21:30:19.295Z,27.986970
2024-01-31T21:35:19.136Z,27.986970
2024-01-31T21:40:19.225Z,27.888561
2024-01-31T21:45:19.313Z,27.888561
2024-01-31T21:50:17.218Z,27.888561
2024-01-31T21:55:17.316Z,27.888561
2024-01-31T22:00:25.428Z,27.888561
2024-01-31T22:05:25.546Z,27.888561
2024-01-31T22:10:19.200Z,27.888561
2024-01-31T22:15:25.419Z,27.790152
2024-01-31T22:20:19.198Z,27.790152
2024-01-31T22:25:19.254Z,27.790152
2024-01-31T22:30:19.524Z,28.067932
2024-01-31T22:35:19.249Z,28.067932
2024-01-31T22:40:25.581Z,28.067932
2024-01-31T22:45:17.389Z,28.067932
2024-01-31T22:50:17.270Z,28.067932
2024-01-31T22:55:25.584Z,28.067932
2024-01-31T23:00:25.513Z,28.067932
2024-01-31T23:05:25.631Z,28.067932
2024-01-31T23:10:19.228Z,28.067932
2024-01-31T23:15:19.469Z,28.067932
2024-01-31T23:20:25.630Z,28.067932
2024-01-31T23:25:19.395Z,28.067932
2024-01-31T23:30:19.397Z,28.067932
2024-01-31T23:35:25.641Z,28.342932
2024-01-31T23:40:17.411Z,28.342932
2024-01-31T23:45:25.676Z,28.342932
2024-01-31T23:50:19.449Z,28.342932
2024-01-31T23:55:19.446Z,28.244266
